Terminal Aerodrome Forecast
Issued by NWS

Home | Current Version | Previous Version | Text Only | Print | Product List | Glossary On
Versions: 1 2 3 4 5 6 7 8 9 10 11 12 13 14 15 16 17 18 19 20 21 22 23 24 25 26 27 28 29 30 31 32 33 34 35 36 37 38 39 40 41 42
000
FTAK31 PAFA 250527
TAFAQT
TAF
PAQT 250527Z 2506/2606 07012KT P6SM OVC007
     FM250800 06010KT 4SM BR OVC003
     FM251100 05008KT 1/2SM FG OVC003
     FM251800 04008KT 3SM BR BKN003 OVC007
     FM252100 03010KT 5SM BR SCT003 BKN007=

USA.gov is the U.S. government's official web portal to all federal, state and local government web resources and services.